sensor_id;sensor_type;location;lat;lon;timestamp;P1;durP1;ratioP1;P2;durP2;ratioP2
37288;SDS011;23174;49.462;11.000;2023-05-10T00:01:28;4.20;;;3.90;;
37288;SDS011;23174;49.462;11.000;2023-05-10T00:03:28;4.80;;;4.40;;
37288;SDS011;23174;49.462;11.000;2023-05-10T00:05:29;4.35;;;4.03;;
37288;SDS011;23174;49.462;11.000;2023-05-10T00:07:29;4.65;;;4.32;;
37288;SDS011;23174;49.462;11.000;2023-05-10T00:09:30;4.72;;;4.40;;
37288;SDS011;23174;49.462;11.000;2023-05-10T00:11:30;4.60;;;4.07;;
37288;SDS011;23174;49.462;11.000;2023-05-10T00:13:31;4.43;;;4.13;;
37288;SDS011;23174;49.462;11.000;2023-05-10T00:15:32;4.38;;;4.03;;
37288;SDS011;23174;49.462;11.000;2023-05-10T00:17:32;4.85;;;4.45;;
37288;SDS011;23174;49.462;11.000;2023-05-10T00:19:33;4.55;;;4.15;;
37288;SDS011;23174;49.462;11.000;2023-05-10T00:21:33;4.85;;;4.40;;
37288;SDS011;23174;49.462;11.000;2023-05-10T00:23:34;4.72;;;4.32;;
37288;SDS011;23174;49.462;11.000;2023-05-10T00:25:34;4.95;;;4.55;;
37288;SDS011;23174;49.462;11.000;2023-05-10T00:27:35;4.78;;;4.38;;
37288;SDS011;23174;49.462;11.000;2023-05-10T00:29:35;4.88;;;4.40;;
37288;SDS011;23174;49.462;11.000;2023-05-10T00:31:35;4.85;;;4.40;;
37288;SDS011;23174;49.462;11.000;2023-05-10T00:33:36;5.75;;;4.50;;
37288;SDS011;23174;49.462;11.000;2023-05-10T00:35:36;4.70;;;4.30;;
37288;SDS011;23174;49.462;11.000;2023-05-10T00:37:37;4.63;;;4.22;;
37288;SDS011;23174;49.462;11.000;2023-05-10T00:39:38;4.55;;;4.15;;
37288;SDS011;23174;49.462;11.000;2023-05-10T00:41:38;4.80;;;4.45;;
37288;SDS011;23174;49.462;11.000;2023-05-10T00:43:39;5.13;;;4.72;;
37288;SDS011;23174;49.462;11.000;2023-05-10T00:45:40;4.88;;;4.50;;
37288;SDS011;23174;49.462;11.000;2023-05-10T00:47:41;6.95;;;4.93;;
37288;SDS011;23174;49.462;11.000;2023-05-10T00:49:41;4.38;;;4.07;;
37288;SDS011;23174;49.462;11.000;2023-05-10T00:51:43;4.72;;;4.32;;
37288;SDS011;23174;49.462;11.000;2023-05-10T00:53:47;4.70;;;4.32;;
37288;SDS011;23174;49.462;11.000;2023-05-10T00:55:49;6.10;;;4.40;;
37288;SDS011;23174;49.462;11.000;2023-05-10T00:57:49;5.10;;;4.70;;
37288;SDS011;23174;49.462;11.000;2023-05-10T00:59:50;5.22;;;4.82;;
37288;SDS011;23174;49.462;11.000;2023-05-10T01:01:51;4.80;;;4.40;;
37288;SDS011;23174;49.462;11.000;2023-05-10T01:03:52;4.72;;;4.38;;
37288;SDS011;23174;49.462;11.000;2023-05-10T01:05:53;5.03;;;4.43;;
37288;SDS011;23174;49.462;11.000;2023-05-10T01:07:55;4.43;;;4.10;;
37288;SDS011;23174;49.462;11.000;2023-05-10T01:09:56;4.40;;;4.10;;
37288;SDS011;23174;49.462;11.000;2023-05-10T01:11:57;4.38;;;4.07;;
37288;SDS011;23174;49.462;11.000;2023-05-10T01:13:58;4.50;;;4.20;;
37288;SDS011;23174;49.462;11.000;2023-05-10T01:15:59;3.92;;;3.53;;
37288;SDS011;23174;49.462;11.000;2023-05-10T01:18:02;4.05;;;3.75;;
37288;SDS011;23174;49.462;11.000;2023-05-10T01:20:03;3.92;;;3.67;;
37288;SDS011;23174;49.462;11.000;2023-05-10T01:24:57;3.95;;;3.65;;
37288;SDS011;23174;49.462;11.000;2023-05-10T01:27:38;3.85;;;3.55;;
37288;SDS011;23174;49.462;11.000;2023-05-10T01:35:06;3.53;;;3.33;;
37288;SDS011;23174;49.462;11.000;2023-05-10T01:37:19;3.40;;;3.10;;
37288;SDS011;23174;49.462;11.000;2023-05-10T01:39:25;3.88;;;3.60;;
37288;SDS011;23174;49.462;11.000;2023-05-10T01:41:41;4.55;;;3.50;;
37288;SDS011;23174;49.462;11.000;2023-05-10T01:46:08;3.47;;;3.17;;
37288;SDS011;23174;49.462;11.000;2023-05-10T01:48:13;3.28;;;2.97;;
37288;SDS011;23174;49.462;11.000;2023-05-10T01:50:18;3.83;;;3.33;;
37288;SDS011;23174;49.462;11.000;2023-05-10T01:52:26;3.20;;;3.00;;
37288;SDS011;23174;49.462;11.000;2023-05-10T01:54:32;3.22;;;3.00;;
37288;SDS011;23174;49.462;11.000;2023-05-10T01:56:33;3.58;;;3.28;;
37288;SDS011;23174;49.462;11.000;2023-05-10T01:58:37;3.30;;;2.83;;
37288;SDS011;23174;49.462;11.000;2023-05-10T02:00:44;3.30;;;3.00;;
37288;SDS011;23174;49.462;11.000;2023-05-10T02:02:46;3.47;;;3.22;;
37288;SDS011;23174;49.462;11.000;2023-05-10T02:04:49;2.95;;;2.75;;
37288;SDS011;23174;49.462;11.000;2023-05-10T02:06:53;3.90;;;2.50;;
37288;SDS011;23174;49.462;11.000;2023-05-10T02:08:55;2.97;;;2.65;;
37288;SDS011;23174;49.462;11.000;2023-05-10T02:10:57;3.63;;;3.35;;
37288;SDS011;23174;49.462;11.000;2023-05-10T02:12:59;4.60;;;2.95;;
37288;SDS011;23174;49.462;11.000;2023-05-10T02:15:02;3.50;;;3.13;;
37288;SDS011;23174;49.462;11.000;2023-05-10T02:17:05;2.75;;;2.55;;
37288;SDS011;23174;49.462;11.000;2023-05-10T02:19:07;10.30;;;2.63;;
37288;SDS011;23174;49.462;11.000;2023-05-10T02:21:10;2.15;;;2.05;;
37288;SDS011;23174;49.462;11.000;2023-05-10T02:23:12;2.97;;;2.67;;
37288;SDS011;23174;49.462;11.000;2023-05-10T02:25:14;2.97;;;2.45;;
37288;SDS011;23174;49.462;11.000;2023-05-10T02:27:17;2.35;;;2.15;;
37288;SDS011;23174;49.462;11.000;2023-05-10T02:29:19;2.70;;;2.50;;
37288;SDS011;23174;49.462;11.000;2023-05-10T02:31:23;2.50;;;2.30;;
37288;SDS011;23174;49.462;11.000;2023-05-10T02:33:24;2.47;;;2.30;;
37288;SDS011;23174;49.462;11.000;2023-05-10T02:35:26;2.90;;;2.60;;
37288;SDS011;23174;49.462;11.000;2023-05-10T02:37:27;2.45;;;2.28;;
37288;SDS011;23174;49.462;11.000;2023-05-10T02:39:28;2.80;;;2.60;;
37288;SDS011;23174;49.462;11.000;2023-05-10T02:41:31;3.13;;;2.35;;
37288;SDS011;23174;49.462;11.000;2023-05-10T02:43:32;2.60;;;2.40;;
37288;SDS011;23174;49.462;11.000;2023-05-10T02:45:33;2.42;;;2.22;;
37288;SDS011;23174;49.462;11.000;2023-05-10T02:47:36;2.58;;;2.35;;
37288;SDS011;23174;49.462;11.000;2023-05-10T02:49:36;2.25;;;1.90;;
37288;SDS011;23174;49.462;11.000;2023-05-10T02:51:40;1.98;;;1.80;;
37288;SDS011;23174;49.462;11.000;2023-05-10T02:53:43;2.10;;;1.88;;
37288;SDS011;23174;49.462;11.000;2023-05-10T02:55:48;1.90;;;1.77;;
37288;SDS011;23174;49.462;11.000;2023-05-10T02:57:52;2.00;;;1.90;;
37288;SDS011;23174;49.462;11.000;2023-05-10T02:59:57;2.88;;;2.20;;
37288;SDS011;23174;49.462;11.000;2023-05-10T03:02:01;1.95;;;1.75;;
37288;SDS011;23174;49.462;11.000;2023-05-10T03:04:03;1.67;;;1.58;;
37288;SDS011;23174;49.462;11.000;2023-05-10T03:06:03;1.80;;;1.70;;
37288;SDS011;23174;49.462;11.000;2023-05-10T03:08:04;2.50;;;1.77;;
37288;SDS011;23174;49.462;11.000;2023-05-10T03:10:06;1.63;;;1.52;;
37288;SDS011;23174;49.462;11.000;2023-05-10T03:12:08;1.60;;;1.50;;
37288;SDS011;23174;49.462;11.000;2023-05-10T03:14:26;1.83;;;1.73;;
37288;SDS011;23174;49.462;11.000;2023-05-10T03:17:03;1.48;;;1.40;;
37288;SDS011;23174;49.462;11.000;2023-05-10T03:19:12;1.45;;;1.33;;
37288;SDS011;23174;49.462;11.000;2023-05-10T03:21:30;1.50;;;1.40;;
37288;SDS011;23174;49.462;11.000;2023-05-10T03:23:35;1.30;;;1.20;;
37288;SDS011;23174;49.462;11.000;2023-05-10T03:25:44;1.50;;;1.40;;
37288;SDS011;23174;49.462;11.000;2023-05-10T03:27:47;1.45;;;1.27;;
37288;SDS011;23174;49.462;11.000;2023-05-10T03:29:48;0.93;;;0.93;;
37288;SDS011;23174;49.462;11.000;2023-05-10T03:31:51;0.90;;;0.90;;
37288;SDS011;23174;49.462;11.000;2023-05-10T03:33:52;0.70;;;0.70;;
37288;SDS011;23174;49.462;11.000;2023-05-10T03:35:52;0.60;;;0.60;;
37288;SDS011;23174;49.462;11.000;2023-05-10T03:37:53;1.55;;;0.82;;
37288;SDS011;23174;49.462;11.000;2023-05-10T03:39:53;0.60;;;0.60;;
37288;SDS011;23174;49.462;11.000;2023-05-10T03:41:54;0.70;;;0.70;;
37288;SDS011;23174;49.462;11.000;2023-05-10T03:43:54;0.65;;;0.43;;
37288;SDS011;23174;49.462;11.000;2023-05-10T03:45:55;0.88;;;0.50;;
37288;SDS011;23174;49.462;11.000;2023-05-10T03:47:55;0.60;;;0.60;;
37288;SDS011;23174;49.462;11.000;2023-05-10T03:49:57;0.70;;;0.70;;
37288;SDS011;23174;49.462;11.000;2023-05-10T03:51:57;0.55;;;0.55;;
37288;SDS011;23174;49.462;11.000;2023-05-10T03:53:58;0.73;;;0.60;;
37288;SDS011;23174;49.462;11.000;2023-05-10T03:55:58;0.75;;;0.50;;
37288;SDS011;23174;49.462;11.000;2023-05-10T03:57:59;0.63;;;0.63;;
37288;SDS011;23174;49.462;11.000;2023-05-10T03:59:59;2.70;;;0.50;;
37288;SDS011;23174;49.462;11.000;2023-05-10T04:02:00;0.47;;;0.47;;
37288;SDS011;23174;49.462;11.000;2023-05-10T04:04:00;0.30;;;0.30;;
37288;SDS011;23174;49.462;11.000;2023-05-10T04:06:01;0.40;;;0.40;;
37288;SDS011;23174;49.462;11.000;2023-05-10T04:08:02;0.50;;;0.50;;
37288;SDS011;23174;49.462;11.000;2023-05-10T04:10:03;0.43;;;0.30;;
37288;SDS011;23174;49.462;11.000;2023-05-10T04:12:04;0.30;;;0.30;;
37288;SDS011;23174;49.462;11.000;2023-05-10T04:14:05;0.70;;;0.35;;
37288;SDS011;23174;49.462;11.000;2023-05-10T04:16:05;0.98;;;0.40;;
37288;SDS011;23174;49.462;11.000;2023-05-10T04:18:06;1.25;;;0.30;;
37288;SDS011;23174;49.462;11.000;2023-05-10T04:20:07;0.35;;;0.25;;
37288;SDS011;23174;49.462;11.000;2023-05-10T04:22:08;0.10;;;0.10;;
37288;SDS011;23174;49.462;11.000;2023-05-10T04:24:09;0.10;;;0.10;;
37288;SDS011;23174;49.462;11.000;2023-05-10T04:26:09;0.30;;;0.30;;
37288;SDS011;23174;49.462;11.000;2023-05-10T04:28:10;1.55;;;0.40;;
37288;SDS011;23174;49.462;11.000;2023-05-10T04:30:10;0.32;;;0.32;;
37288;SDS011;23174;49.462;11.000;2023-05-10T04:32:11;0.20;;;0.20;;
37288;SDS011;23174;49.462;11.000;2023-05-10T04:34:11;1.27;;;0.60;;
37288;SDS011;23174;49.462;11.000;2023-05-10T04:36:12;0.20;;;0.20;;
37288;SDS011;23174;49.462;11.000;2023-05-10T04:38:12;0.95;;;0.30;;
37288;SDS011;23174;49.462;11.000;2023-05-10T04:40:13;0.40;;;0.40;;
37288;SDS011;23174;49.462;11.000;2023-05-10T04:42:13;0.20;;;0.20;;
37288;SDS011;23174;49.462;11.000;2023-05-10T04:44:14;1.13;;;0.47;;
37288;SDS011;23174;49.462;11.000;2023-05-10T04:46:15;0.60;;;0.50;;
37288;SDS011;23174;49.462;11.000;2023-05-10T04:48:15;0.40;;;0.40;;
37288;SDS011;23174;49.462;11.000;2023-05-10T04:50:16;0.40;;;0.40;;
37288;SDS011;23174;49.462;11.000;2023-05-10T04:52:17;0.40;;;0.35;;
37288;SDS011;23174;49.462;11.000;2023-05-10T04:54:17;0.22;;;0.22;;
37288;SDS011;23174;49.462;11.000;2023-05-10T04:56:18;1.55;;;0.40;;
37288;SDS011;23174;49.462;11.000;2023-05-10T04:58:19;0.20;;;0.20;;
37288;SDS011;23174;49.462;11.000;2023-05-10T05:00:19;0.40;;;0.40;;
37288;SDS011;23174;49.462;11.000;2023-05-10T05:02:20;0.28;;;0.20;;
37288;SDS011;23174;49.462;11.000;2023-05-10T05:04:21;2.78;;;0.40;;
37288;SDS011;23174;49.462;11.000;2023-05-10T05:06:23;0.65;;;0.60;;
37288;SDS011;23174;49.462;11.000;2023-05-10T05:08:24;0.30;;;0.30;;
37288;SDS011;23174;49.462;11.000;2023-05-10T05:10:25;0.38;;;0.32;;
37288;SDS011;23174;49.462;11.000;2023-05-10T05:12:25;0.50;;;0.20;;
37288;SDS011;23174;49.462;11.000;2023-05-10T05:14:26;0.55;;;0.30;;
37288;SDS011;23174;49.462;11.000;2023-05-10T05:16:26;1.65;;;0.32;;
37288;SDS011;23174;49.462;11.000;2023-05-10T05:18:30;0.98;;;0.32;;
37288;SDS011;23174;49.462;11.000;2023-05-10T05:20:32;1.25;;;0.20;;
37288;SDS011;23174;49.462;11.000;2023-05-10T05:22:35;3.22;;;0.40;;
37288;SDS011;23174;49.462;11.000;2023-05-10T05:24:36;0.17;;;0.17;;
37288;SDS011;23174;49.462;11.000;2023-05-10T05:26:39;0.20;;;0.20;;
37288;SDS011;23174;49.462;11.000;2023-05-10T05:28:40;0.25;;;0.10;;
37288;SDS011;23174;49.462;11.000;2023-05-10T05:30:40;0.47;;;0.43;;
37288;SDS011;23174;49.462;11.000;2023-05-10T05:32:41;2.25;;;0.40;;
37288;SDS011;23174;49.462;11.000;2023-05-10T05:34:43;0.40;;;0.30;;
37288;SDS011;23174;49.462;11.000;2023-05-10T05:36:45;0.85;;;0.77;;
37288;SDS011;23174;49.462;11.000;2023-05-10T05:38:45;0.43;;;0.43;;
37288;SDS011;23174;49.462;11.000;2023-05-10T05:40:46;0.75;;;0.45;;
37288;SDS011;23174;49.462;11.000;2023-05-10T05:42:46;0.63;;;0.45;;
37288;SDS011;23174;49.462;11.000;2023-05-10T05:44:47;0.20;;;0.20;;
37288;SDS011;23174;49.462;11.000;2023-05-10T05:46:47;0.35;;;0.22;;
37288;SDS011;23174;49.462;11.000;2023-05-10T05:48:48;1.38;;;0.60;;
37288;SDS011;23174;49.462;11.000;2023-05-10T05:50:48;0.80;;;0.50;;
37288;SDS011;23174;49.462;11.000;2023-05-10T05:52:49;1.83;;;0.40;;
37288;SDS011;23174;49.462;11.000;2023-05-10T05:54:49;0.35;;;0.35;;
37288;SDS011;23174;49.462;11.000;2023-05-10T05:56:50;0.45;;;0.45;;
37288;SDS011;23174;49.462;11.000;2023-05-10T05:58:50;1.02;;;0.98;;
37288;SDS011;23174;49.462;11.000;2023-05-10T06:00:51;0.50;;;0.50;;
37288;SDS011;23174;49.462;11.000;2023-05-10T06:02:52;0.73;;;0.40;;
37288;SDS011;23174;49.462;11.000;2023-05-10T06:04:53;2.65;;;0.57;;
37288;SDS011;23174;49.462;11.000;2023-05-10T06:06:53;0.38;;;0.38;;
37288;SDS011;23174;49.462;11.000;2023-05-10T06:08:54;0.68;;;0.68;;
37288;SDS011;23174;49.462;11.000;2023-05-10T06:10:54;0.50;;;0.50;;
37288;SDS011;23174;49.462;11.000;2023-05-10T06:12:55;0.45;;;0.45;;
37288;SDS011;23174;49.462;11.000;2023-05-10T06:14:56;0.30;;;0.30;;
37288;SDS011;23174;49.462;11.000;2023-05-10T06:16:56;0.93;;;0.43;;
37288;SDS011;23174;49.462;11.000;2023-05-10T06:18:57;0.75;;;0.60;;
37288;SDS011;23174;49.462;11.000;2023-05-10T06:20:57;4.40;;;0.55;;
37288;SDS011;23174;49.462;11.000;2023-05-10T06:22:57;1.67;;;0.55;;
37288;SDS011;23174;49.462;11.000;2023-05-10T06:24:58;0.73;;;0.68;;
37288;SDS011;23174;49.462;11.000;2023-05-10T06:26:59;0.45;;;0.45;;
37288;SDS011;23174;49.462;11.000;2023-05-10T06:29:00;4.20;;;0.60;;
37288;SDS011;23174;49.462;11.000;2023-05-10T06:31:01;1.77;;;0.50;;
37288;SDS011;23174;49.462;11.000;2023-05-10T06:33:02;1.75;;;0.60;;
37288;SDS011;23174;49.462;11.000;2023-05-10T06:35:03;0.10;;;0.10;;
37288;SDS011;23174;49.462;11.000;2023-05-10T06:37:03;0.00;;;0.00;;
37288;SDS011;23174;49.462;11.000;2023-05-10T06:39:04;0.20;;;0.20;;
37288;SDS011;23174;49.462;11.000;2023-05-10T06:41:05;0.00;;;0.00;;
37288;SDS011;23174;49.462;11.000;2023-05-10T06:43:06;0.22;;;0.22;;
37288;SDS011;23174;49.462;11.000;2023-05-10T06:45:06;0.38;;;0.38;;
37288;SDS011;23174;49.462;11.000;2023-05-10T06:47:08;0.00;;;0.00;;
37288;SDS011;23174;49.462;11.000;2023-05-10T06:49:09;0.00;;;0.00;;
37288;SDS011;23174;49.462;11.000;2023-05-10T06:51:09;0.20;;;0.20;;
37288;SDS011;23174;49.462;11.000;2023-05-10T06:53:10;0.15;;;0.15;;
37288;SDS011;23174;49.462;11.000;2023-05-10T06:55:11;0.30;;;0.13;;
37288;SDS011;23174;49.462;11.000;2023-05-10T06:57:12;0.17;;;0.17;;
37288;SDS011;23174;49.462;11.000;2023-05-10T06:59:12;0.03;;;0.03;;
37288;SDS011;23174;49.462;11.000;2023-05-10T07:01:14;0.00;;;0.00;;
37288;SDS011;23174;49.462;11.000;2023-05-10T07:03:14;0.00;;;0.00;;
37288;SDS011;23174;49.462;11.000;2023-05-10T07:05:15;0.00;;;0.00;;
37288;SDS011;23174;49.462;11.000;2023-05-10T07:07:15;0.00;;;0.00;;
37288;SDS011;23174;49.462;11.000;2023-05-10T07:09:16;2.92;;;0.13;;
37288;SDS011;23174;49.462;11.000;2023-05-10T07:11:16;0.20;;;0.00;;
37288;SDS011;23174;49.462;11.000;2023-05-10T07:13:17;0.22;;;0.22;;
37288;SDS011;23174;49.462;11.000;2023-05-10T07:15:17;0.10;;;0.10;;
37288;SDS011;23174;49.462;11.000;2023-05-10T07:17:18;0.60;;;0.35;;
37288;SDS011;23174;49.462;11.000;2023-05-10T07:19:18;0.55;;;0.20;;
37288;SDS011;23174;49.462;11.000;2023-05-10T07:21:19;0.30;;;0.20;;
37288;SDS011;23174;49.462;11.000;2023-05-10T07:23:20;4.65;;;0.40;;
37288;SDS011;23174;49.462;11.000;2023-05-10T07:25:20;0.10;;;0.03;;
37288;SDS011;23174;49.462;11.000;2023-05-10T07:27:21;0.57;;;0.30;;
37288;SDS011;23174;49.462;11.000;2023-05-10T07:29:21;0.10;;;0.10;;
37288;SDS011;23174;49.462;11.000;2023-05-10T07:31:22;0.00;;;0.00;;
37288;SDS011;23174;49.462;11.000;2023-05-10T07:33:22;0.85;;;0.50;;
37288;SDS011;23174;49.462;11.000;2023-05-10T07:35:23;1.85;;;0.10;;
37288;SDS011;23174;49.462;11.000;2023-05-10T07:37:23;0.00;;;0.00;;
37288;SDS011;23174;49.462;11.000;2023-05-10T07:39:24;0.10;;;0.10;;
37288;SDS011;23174;49.462;11.000;2023-05-10T07:41:25;0.00;;;0.00;;
37288;SDS011;23174;49.462;11.000;2023-05-10T07:43:27;0.00;;;0.00;;
37288;SDS011;23174;49.462;11.000;2023-05-10T07:45:27;0.08;;;0.08;;
37288;SDS011;23174;49.462;11.000;2023-05-10T07:47:28;0.00;;;0.00;;
37288;SDS011;23174;49.462;11.000;2023-05-10T07:49:28;0.30;;;0.30;;
37288;SDS011;23174;49.462;11.000;2023-05-10T07:51:29;0.00;;;0.00;;
37288;SDS011;23174;49.462;11.000;2023-05-10T07:53:29;0.10;;;0.10;;
37288;SDS011;23174;49.462;11.000;2023-05-10T07:55:30;0.20;;;0.20;;
37288;SDS011;23174;49.462;11.000;2023-05-10T07:57:30;0.30;;;0.30;;
37288;SDS011;23174;49.462;11.000;2023-05-10T07:59:31;1.75;;;0.20;;
37288;SDS011;23174;49.462;11.000;2023-05-10T08:01:33;0.08;;;0.08;;
37288;SDS011;23174;49.462;11.000;2023-05-10T08:03:34;0.20;;;0.20;;
37288;SDS011;23174;49.462;11.000;2023-05-10T08:05:35;0.00;;;0.00;;
37288;SDS011;23174;49.462;11.000;2023-05-10T08:07:35;0.10;;;0.10;;
37288;SDS011;23174;49.462;11.000;2023-05-10T08:09:36;0.10;;;0.10;;
37288;SDS011;23174;49.462;11.000;2023-05-10T08:11:36;0.20;;;0.20;;
37288;SDS011;23174;49.462;11.000;2023-05-10T08:13:37;0.38;;;0.30;;
37288;SDS011;23174;49.462;11.000;2023-05-10T08:15:37;0.10;;;0.10;;
37288;SDS011;23174;49.462;11.000;2023-05-10T08:17:38;0.00;;;0.00;;
37288;SDS011;23174;49.462;11.000;2023-05-10T08:19:38;0.17;;;0.17;;
37288;SDS011;23174;49.462;11.000;2023-05-10T08:21:38;1.60;;;0.17;;
37288;SDS011;23174;49.462;11.000;2023-05-10T08:23:40;0.00;;;0.00;;
37288;SDS011;23174;49.462;11.000;2023-05-10T08:25:41;0.17;;;0.15;;
37288;SDS011;23174;49.462;11.000;2023-05-10T08:27:41;0.20;;;0.20;;
37288;SDS011;23174;49.462;11.000;2023-05-10T08:29:42;0.28;;;0.22;;
37288;SDS011;23174;49.462;11.000;2023-05-10T08:31:42;0.08;;;0.08;;
37288;SDS011;23174;49.462;11.000;2023-05-10T08:33:43;0.30;;;0.30;;
37288;SDS011;23174;49.462;11.000;2023-05-10T08:35:44;0.10;;;0.10;;
37288;SDS011;23174;49.462;11.000;2023-05-10T08:37:44;0.10;;;0.10;;
37288;SDS011;23174;49.462;11.000;2023-05-10T08:39:45;0.17;;;0.17;;
37288;SDS011;23174;49.462;11.000;2023-05-10T08:41:47;0.30;;;0.22;;
37288;SDS011;23174;49.462;11.000;2023-05-10T08:43:51;0.00;;;0.00;;
37288;SDS011;23174;49.462;11.000;2023-05-10T08:55:38;0.20;;;0.20;;
37288;SDS011;23174;49.462;11.000;2023-05-10T08:57:41;0.20;;;0.20;;
37288;SDS011;23174;49.462;11.000;2023-05-10T08:59:42;0.20;;;0.20;;
37288;SDS011;23174;49.462;11.000;2023-05-10T09:01:43;0.70;;;0.63;;
37288;SDS011;23174;49.462;11.000;2023-05-10T09:03:48;0.40;;;0.40;;
37288;SDS011;23174;49.462;11.000;2023-05-10T09:05:49;0.10;;;0.10;;
37288;SDS011;23174;49.462;11.000;2023-05-10T09:07:49;0.00;;;0.00;;
37288;SDS011;23174;49.462;11.000;2023-05-10T09:09:50;0.13;;;0.13;;
37288;SDS011;23174;49.462;11.000;2023-05-10T09:11:51;0.00;;;0.00;;
37288;SDS011;23174;49.462;11.000;2023-05-10T09:13:53;0.20;;;0.15;;
37288;SDS011;23174;49.462;11.000;2023-05-10T09:15:53;0.10;;;0.10;;
37288;SDS011;23174;49.462;11.000;2023-05-10T09:17:54;0.08;;;0.08;;
37288;SDS011;23174;49.462;11.000;2023-05-10T09:19:58;0.03;;;0.03;;
37288;SDS011;23174;49.462;11.000;2023-05-10T09:22:00;0.00;;;0.00;;
37288;SDS011;23174;49.462;11.000;2023-05-10T09:24:02;0.10;;;0.10;;
37288;SDS011;23174;49.462;11.000;2023-05-10T09:26:05;0.00;;;0.00;;
37288;SDS011;23174;49.462;11.000;2023-05-10T09:28:08;0.00;;;0.00;;
37288;SDS011;23174;49.462;11.000;2023-05-10T09:30:09;0.03;;;0.03;;
37288;SDS011;23174;49.462;11.000;2023-05-10T09:32:10;0.10;;;0.10;;
37288;SDS011;23174;49.462;11.000;2023-05-10T09:34:10;0.77;;;0.15;;
37288;SDS011;23174;49.462;11.000;2023-05-10T09:36:11;0.20;;;0.20;;
37288;SDS011;23174;49.462;11.000;2023-05-10T09:38:12;0.10;;;0.10;;
37288;SDS011;23174;49.462;11.000;2023-05-10T09:42:20;0.38;;;0.38;;
37288;SDS011;23174;49.462;11.000;2023-05-10T09:44:21;0.08;;;0.08;;
37288;SDS011;23174;49.462;11.000;2023-05-10T09:46:21;0.00;;;0.00;;
37288;SDS011;23174;49.462;11.000;2023-05-10T09:48:23;0.00;;;0.00;;
37288;SDS011;23174;49.462;11.000;2023-05-10T09:50:24;0.00;;;0.00;;
37288;SDS011;23174;49.462;11.000;2023-05-10T09:52:25;0.03;;;0.03;;
37288;SDS011;23174;49.462;11.000;2023-05-10T09:54:26;0.10;;;0.10;;
37288;SDS011;23174;49.462;11.000;2023-05-10T09:56:33;0.20;;;0.20;;
37288;SDS011;23174;49.462;11.000;2023-05-10T09:58:36;0.10;;;0.10;;
37288;SDS011;23174;49.462;11.000;2023-05-10T10:00:40;0.00;;;0.00;;
37288;SDS011;23174;49.462;11.000;2023-05-10T10:02:48;0.22;;;0.10;;
37288;SDS011;23174;49.462;11.000;2023-05-10T10:04:54;0.03;;;0.03;;
37288;SDS011;23174;49.462;11.000;2023-05-10T10:07:02;0.57;;;0.28;;
37288;SDS011;23174;49.462;11.000;2023-05-10T10:09:03;0.32;;;0.20;;
37288;SDS011;23174;49.462;11.000;2023-05-10T10:11:04;0.10;;;0.10;;
37288;SDS011;23174;49.462;11.000;2023-05-10T10:13:05;0.00;;;0.00;;
37288;SDS011;23174;49.462;11.000;2023-05-10T10:15:06;1.95;;;0.47;;
37288;SDS011;23174;49.462;11.000;2023-05-10T10:17:08;0.00;;;0.00;;
37288;SDS011;23174;49.462;11.000;2023-05-10T10:19:09;0.10;;;0.00;;
37288;SDS011;23174;49.462;11.000;2023-05-10T10:21:10;0.00;;;0.00;;
37288;SDS011;23174;49.462;11.000;2023-05-10T10:23:13;0.45;;;0.43;;
37288;SDS011;23174;49.462;11.000;2023-05-10T10:25:14;0.90;;;0.10;;
37288;SDS011;23174;49.462;11.000;2023-05-10T10:27:21;0.30;;;0.30;;
37288;SDS011;23174;49.462;11.000;2023-05-10T10:31:48;0.10;;;0.10;;
37288;SDS011;23174;49.462;11.000;2023-05-10T10:34:06;1.00;;;0.20;;
37288;SDS011;23174;49.462;11.000;2023-05-10T10:36:11;0.30;;;0.00;;
37288;SDS011;23174;49.462;11.000;2023-05-10T10:38:13;0.10;;;0.10;;
37288;SDS011;23174;49.462;11.000;2023-05-10T10:40:23;0.15;;;0.15;;
37288;SDS011;23174;49.462;11.000;2023-05-10T10:42:43;0.10;;;0.10;;
37288;SDS011;23174;49.462;11.000;2023-05-10T10:44:45;0.10;;;0.10;;
37288;SDS011;23174;49.462;11.000;2023-05-10T10:49:27;0.00;;;0.00;;
37288;SDS011;23174;49.462;11.000;2023-05-10T10:51:28;0.98;;;0.25;;
37288;SDS011;23174;49.462;11.000;2023-05-10T10:53:29;0.17;;;0.17;;
37288;SDS011;23174;49.462;11.000;2023-05-10T10:55:30;0.10;;;0.10;;
37288;SDS011;23174;49.462;11.000;2023-05-10T10:57:31;0.30;;;0.30;;
37288;SDS011;23174;49.462;11.000;2023-05-10T10:59:33;0.20;;;0.20;;
37288;SDS011;23174;49.462;11.000;2023-05-10T11:01:34;0.20;;;0.20;;
37288;SDS011;23174;49.462;11.000;2023-05-10T11:03:37;0.10;;;0.10;;
37288;SDS011;23174;49.462;11.000;2023-05-10T11:07:56;0.10;;;0.10;;
37288;SDS011;23174;49.462;11.000;2023-05-10T11:10:03;0.10;;;0.10;;
37288;SDS011;23174;49.462;11.000;2023-05-10T11:12:07;0.10;;;0.05;;
37288;SDS011;23174;49.462;11.000;2023-05-10T11:14:08;0.98;;;0.28;;
37288;SDS011;23174;49.462;11.000;2023-05-10T11:16:12;0.20;;;0.20;;
37288;SDS011;23174;49.462;11.000;2023-05-10T11:18:18;0.10;;;0.10;;
37288;SDS011;23174;49.462;11.000;2023-05-10T11:20:20;0.00;;;0.00;;
37288;SDS011;23174;49.462;11.000;2023-05-10T11:22:24;0.00;;;0.00;;
37288;SDS011;23174;49.462;11.000;2023-05-10T11:24:27;0.00;;;0.00;;
37288;SDS011;23174;49.462;11.000;2023-05-10T11:26:31;0.10;;;0.10;;
37288;SDS011;23174;49.462;11.000;2023-05-10T11:28:34;0.20;;;0.20;;
37288;SDS011;23174;49.462;11.000;2023-05-10T11:30:35;0.28;;;0.28;;
37288;SDS011;23174;49.462;11.000;2023-05-10T11:32:38;0.45;;;0.30;;
37288;SDS011;23174;49.462;11.000;2023-05-10T11:34:40;0.10;;;0.10;;
37288;SDS011;23174;49.462;11.000;2023-05-10T11:36:40;0.10;;;0.10;;
37288;SDS011;23174;49.462;11.000;2023-05-10T11:38:41;0.00;;;0.00;;
37288;SDS011;23174;49.462;11.000;2023-05-10T11:40:41;0.03;;;0.03;;
37288;SDS011;23174;49.462;11.000;2023-05-10T11:42:43;0.40;;;0.40;;
37288;SDS011;23174;49.462;11.000;2023-05-10T11:44:45;0.25;;;0.20;;
37288;SDS011;23174;49.462;11.000;2023-05-10T11:46:46;0.13;;;0.13;;
37288;SDS011;23174;49.462;11.000;2023-05-10T11:48:49;0.00;;;0.00;;
37288;SDS011;23174;49.462;11.000;2023-05-10T11:50:52;0.03;;;0.03;;
37288;SDS011;23174;49.462;11.000;2023-05-10T11:52:55;0.10;;;0.10;;
37288;SDS011;23174;49.462;11.000;2023-05-10T11:54:57;0.20;;;0.00;;
37288;SDS011;23174;49.462;11.000;2023-05-10T11:56:57;0.10;;;0.10;;
37288;SDS011;23174;49.462;11.000;2023-05-10T11:58:58;0.10;;;0.10;;
37288;SDS011;23174;49.462;11.000;2023-05-10T12:01:00;0.00;;;0.00;;
37288;SDS011;23174;49.462;11.000;2023-05-10T12:03:01;0.03;;;0.03;;
37288;SDS011;23174;49.462;11.000;2023-05-10T12:05:02;0.47;;;0.47;;
37288;SDS011;23174;49.462;11.000;2023-05-10T12:07:05;0.10;;;0.10;;
37288;SDS011;23174;49.462;11.000;2023-05-10T12:09:06;0.20;;;0.20;;
37288;SDS011;23174;49.462;11.000;2023-05-10T12:11:08;0.22;;;0.22;;
37288;SDS011;23174;49.462;11.000;2023-05-10T12:13:13;0.30;;;0.10;;
37288;SDS011;23174;49.462;11.000;2023-05-10T12:15:18;0.25;;;0.25;;
37288;SDS011;23174;49.462;11.000;2023-05-10T12:17:20;0.40;;;0.05;;
37288;SDS011;23174;49.462;11.000;2023-05-10T12:19:21;0.00;;;0.00;;
37288;SDS011;23174;49.462;11.000;2023-05-10T12:21:21;0.10;;;0.10;;
37288;SDS011;23174;49.462;11.000;2023-05-10T12:23:22;0.50;;;0.20;;
37288;SDS011;23174;49.462;11.000;2023-05-10T12:25:23;0.60;;;0.45;;
37288;SDS011;23174;49.462;11.000;2023-05-10T12:27:32;0.00;;;0.00;;
37288;SDS011;23174;49.462;11.000;2023-05-10T12:29:32;0.00;;;0.00;;
37288;SDS011;23174;49.462;11.000;2023-05-10T12:31:33;0.28;;;0.10;;
37288;SDS011;23174;49.462;11.000;2023-05-10T12:33:48;0.00;;;0.00;;